sensor_id;sensor_type;location;lat;lon;timestamp;P1;durP1;ratioP1;P2;durP2;ratioP2
30458;SDS011;17254;50.976;7.034;2022-08-21T00:00:30;19.17;;;14.25;;
30458;SDS011;17254;50.976;7.034;2022-08-21T00:01:02;24.67;;;14.98;;
30458;SDS011;17254;50.976;7.034;2022-08-21T00:01:36;24.90;;;14.27;;
30458;SDS011;17254;50.976;7.034;2022-08-21T00:02:14;22.02;;;14.68;;
30458;SDS011;17254;50.976;7.034;2022-08-21T00:02:47;29.05;;;16.02;;
30458;SDS011;17254;50.976;7.034;2022-08-21T00:03:20;20.92;;;14.52;;
30458;SDS011;17254;50.976;7.034;2022-08-21T00:03:51;32.05;;;16.95;;
30458;SDS011;17254;50.976;7.034;2022-08-21T00:04:23;25.38;;;14.73;;
30458;SDS011;17254;50.976;7.034;2022-08-21T00:04:54;31.80;;;16.20;;
30458;SDS011;17254;50.976;7.034;2022-08-21T00:05:25;29.25;;;14.93;;
30458;SDS011;17254;50.976;7.034;2022-08-21T00:05:58;26.15;;;14.65;;
30458;SDS011;17254;50.976;7.034;2022-08-21T00:06:29;30.33;;;16.58;;
30458;SDS011;17254;50.976;7.034;2022-08-21T00:07:00;31.05;;;16.20;;
30458;SDS011;17254;50.976;7.034;2022-08-21T00:07:31;34.83;;;17.98;;
30458;SDS011;17254;50.976;7.034;2022-08-21T00:08:04;27.30;;;16.08;;
30458;SDS011;17254;50.976;7.034;2022-08-21T00:08:36;26.80;;;15.73;;
30458;SDS011;17254;50.976;7.034;2022-08-21T00:09:07;25.63;;;15.48;;
30458;SDS011;17254;50.976;7.034;2022-08-21T00:09:41;30.50;;;16.10;;
30458;SDS011;17254;50.976;7.034;2022-08-21T00:10:13;28.95;;;17.10;;
30458;SDS011;17254;50.976;7.034;2022-08-21T00:10:45;30.15;;;17.75;;
30458;SDS011;17254;50.976;7.034;2022-08-21T00:11:18;33.03;;;16.77;;
30458;SDS011;17254;50.976;7.034;2022-08-21T00:11:49;29.00;;;17.58;;
30458;SDS011;17254;50.976;7.034;2022-08-21T00:12:20;32.33;;;17.02;;
30458;SDS011;17254;50.976;7.034;2022-08-21T00:12:51;30.17;;;17.52;;
30458;SDS011;17254;50.976;7.034;2022-08-21T00:13:24;29.15;;;16.20;;
30458;SDS011;17254;50.976;7.034;2022-08-21T00:13:55;31.13;;;18.05;;
30458;SDS011;17254;50.976;7.034;2022-08-21T00:14:26;31.38;;;17.20;;
30458;SDS011;17254;50.976;7.034;2022-08-21T00:14:58;35.47;;;16.95;;
30458;SDS011;17254;50.976;7.034;2022-08-21T00:15:30;29.10;;;17.63;;
30458;SDS011;17254;50.976;7.034;2022-08-21T00:16:02;26.55;;;17.48;;
30458;SDS011;17254;50.976;7.034;2022-08-21T00:16:34;32.80;;;17.10;;
30458;SDS011;17254;50.976;7.034;2022-08-21T00:17:06;28.77;;;17.83;;
30458;SDS011;17254;50.976;7.034;2022-08-21T00:17:39;29.27;;;16.50;;
30458;SDS011;17254;50.976;7.034;2022-08-21T00:18:10;35.75;;;18.63;;
30458;SDS011;17254;50.976;7.034;2022-08-21T00:18:42;28.58;;;16.98;;
30458;SDS011;17254;50.976;7.034;2022-08-21T00:19:16;33.53;;;18.02;;
30458;SDS011;17254;50.976;7.034;2022-08-21T00:19:48;31.45;;;17.77;;
30458;SDS011;17254;50.976;7.034;2022-08-21T00:20:20;24.85;;;16.33;;
30458;SDS011;17254;50.976;7.034;2022-08-21T00:20:52;25.02;;;15.50;;
30458;SDS011;17254;50.976;7.034;2022-08-21T00:21:23;30.75;;;16.73;;
30458;SDS011;17254;50.976;7.034;2022-08-21T00:21:56;28.23;;;17.98;;
30458;SDS011;17254;50.976;7.034;2022-08-21T00:22:27;29.67;;;18.10;;
30458;SDS011;17254;50.976;7.034;2022-08-21T00:22:58;33.10;;;18.10;;
30458;SDS011;17254;50.976;7.034;2022-08-21T00:23:30;24.40;;;17.65;;
30458;SDS011;17254;50.976;7.034;2022-08-21T00:24:03;31.08;;;18.50;;
30458;SDS011;17254;50.976;7.034;2022-08-21T00:24:35;31.50;;;17.08;;
30458;SDS011;17254;50.976;7.034;2022-08-21T00:25:07;31.63;;;18.38;;
30458;SDS011;17254;50.976;7.034;2022-08-21T00:25:40;31.30;;;16.95;;
30458;SDS011;17254;50.976;7.034;2022-08-21T00:26:12;30.58;;;16.45;;
30458;SDS011;17254;50.976;7.034;2022-08-21T00:26:44;32.85;;;18.70;;
30458;SDS011;17254;50.976;7.034;2022-08-21T00:27:15;33.42;;;16.88;;
30458;SDS011;17254;50.976;7.034;2022-08-21T00:27:46;32.40;;;17.02;;
30458;SDS011;17254;50.976;7.034;2022-08-21T00:28:18;28.05;;;17.05;;
30458;SDS011;17254;50.976;7.034;2022-08-21T00:28:49;28.00;;;16.05;;
30458;SDS011;17254;50.976;7.034;2022-08-21T00:29:26;29.40;;;16.45;;
30458;SDS011;17254;50.976;7.034;2022-08-21T00:29:58;37.33;;;18.48;;
30458;SDS011;17254;50.976;7.034;2022-08-21T00:30:29;28.88;;;17.92;;
30458;SDS011;17254;50.976;7.034;2022-08-21T00:31:00;24.48;;;17.02;;
30458;SDS011;17254;50.976;7.034;2022-08-21T00:31:33;31.95;;;17.52;;
30458;SDS011;17254;50.976;7.034;2022-08-21T00:32:05;24.05;;;16.50;;
30458;SDS011;17254;50.976;7.034;2022-08-21T00:32:36;27.40;;;17.15;;
30458;SDS011;17254;50.976;7.034;2022-08-21T00:33:11;31.27;;;17.85;;
30458;SDS011;17254;50.976;7.034;2022-08-21T00:33:43;28.70;;;17.33;;
30458;SDS011;17254;50.976;7.034;2022-08-21T00:34:14;35.90;;;18.50;;
30458;SDS011;17254;50.976;7.034;2022-08-21T00:34:46;28.10;;;17.60;;
30458;SDS011;17254;50.976;7.034;2022-08-21T00:35:18;27.33;;;17.15;;
30458;SDS011;17254;50.976;7.034;2022-08-21T00:35:51;33.50;;;18.45;;
30458;SDS011;17254;50.976;7.034;2022-08-21T00:36:23;35.83;;;17.73;;
30458;SDS011;17254;50.976;7.034;2022-08-21T00:36:54;29.85;;;18.25;;
30458;SDS011;17254;50.976;7.034;2022-08-21T00:37:25;32.00;;;17.88;;
30458;SDS011;17254;50.976;7.034;2022-08-21T00:37:57;27.65;;;16.25;;
30458;SDS011;17254;50.976;7.034;2022-08-21T00:38:28;27.45;;;16.42;;
30458;SDS011;17254;50.976;7.034;2022-08-21T00:38:59;25.63;;;17.42;;
30458;SDS011;17254;50.976;7.034;2022-08-21T00:39:32;31.88;;;18.08;;
30458;SDS011;17254;50.976;7.034;2022-08-21T00:40:04;31.70;;;17.08;;
30458;SDS011;17254;50.976;7.034;2022-08-21T00:40:37;26.45;;;16.85;;
30458;SDS011;17254;50.976;7.034;2022-08-21T00:41:11;31.08;;;18.13;;
30458;SDS011;17254;50.976;7.034;2022-08-21T00:41:43;24.92;;;17.40;;
30458;SDS011;17254;50.976;7.034;2022-08-21T00:42:14;32.45;;;18.65;;
30458;SDS011;17254;50.976;7.034;2022-08-21T00:42:47;35.17;;;19.05;;
30458;SDS011;17254;50.976;7.034;2022-08-21T00:43:18;27.17;;;17.13;;
30458;SDS011;17254;50.976;7.034;2022-08-21T00:43:51;31.25;;;17.98;;
30458;SDS011;17254;50.976;7.034;2022-08-21T00:44:23;31.63;;;19.45;;
30458;SDS011;17254;50.976;7.034;2022-08-21T00:44:55;35.30;;;18.63;;
30458;SDS011;17254;50.976;7.034;2022-08-21T00:45:28;34.95;;;17.80;;
30458;SDS011;17254;50.976;7.034;2022-08-21T00:46:00;34.97;;;17.80;;
30458;SDS011;17254;50.976;7.034;2022-08-21T00:46:33;30.75;;;18.33;;
30458;SDS011;17254;50.976;7.034;2022-08-21T00:47:04;28.05;;;16.52;;
30458;SDS011;17254;50.976;7.034;2022-08-21T00:47:35;29.92;;;17.80;;
30458;SDS011;17254;50.976;7.034;2022-08-21T00:48:09;29.13;;;16.23;;
30458;SDS011;17254;50.976;7.034;2022-08-21T00:48:40;29.23;;;18.35;;
30458;SDS011;17254;50.976;7.034;2022-08-21T00:49:11;29.15;;;17.02;;
30458;SDS011;17254;50.976;7.034;2022-08-21T00:49:44;33.80;;;18.42;;
30458;SDS011;17254;50.976;7.034;2022-08-21T00:50:16;33.20;;;17.13;;
30458;SDS011;17254;50.976;7.034;2022-08-21T00:50:49;31.40;;;16.98;;
30458;SDS011;17254;50.976;7.034;2022-08-21T00:51:28;31.48;;;16.73;;
30458;SDS011;17254;50.976;7.034;2022-08-21T00:52:05;30.63;;;18.08;;
30458;SDS011;17254;50.976;7.034;2022-08-21T00:52:43;32.78;;;18.02;;
30458;SDS011;17254;50.976;7.034;2022-08-21T00:53:16;26.85;;;17.05;;
30458;SDS011;17254;50.976;7.034;2022-08-21T00:53:47;28.98;;;18.40;;
30458;SDS011;17254;50.976;7.034;2022-08-21T00:54:22;30.13;;;17.15;;
30458;SDS011;17254;50.976;7.034;2022-08-21T00:54:57;26.73;;;17.23;;
30458;SDS011;17254;50.976;7.034;2022-08-21T00:55:29;26.35;;;16.17;;
30458;SDS011;17254;50.976;7.034;2022-08-21T00:56:01;28.77;;;16.50;;
30458;SDS011;17254;50.976;7.034;2022-08-21T00:56:34;32.17;;;18.92;;
30458;SDS011;17254;50.976;7.034;2022-08-21T00:57:07;25.63;;;16.52;;
30458;SDS011;17254;50.976;7.034;2022-08-21T00:57:44;30.33;;;17.58;;
30458;SDS011;17254;50.976;7.034;2022-08-21T00:58:18;31.30;;;17.83;;
30458;SDS011;17254;50.976;7.034;2022-08-21T00:58:50;29.45;;;17.23;;
30458;SDS011;17254;50.976;7.034;2022-08-21T00:59:24;34.22;;;17.30;;
30458;SDS011;17254;50.976;7.034;2022-08-21T01:00:00;29.15;;;17.00;;
30458;SDS011;17254;50.976;7.034;2022-08-21T01:00:37;28.88;;;16.33;;
30458;SDS011;17254;50.976;7.034;2022-08-21T01:01:09;31.98;;;16.60;;
30458;SDS011;17254;50.976;7.034;2022-08-21T01:01:41;26.38;;;17.17;;
30458;SDS011;17254;50.976;7.034;2022-08-21T01:02:12;30.13;;;17.17;;
30458;SDS011;17254;50.976;7.034;2022-08-21T01:02:44;29.05;;;18.05;;
30458;SDS011;17254;50.976;7.034;2022-08-21T01:03:19;28.20;;;17.35;;
30458;SDS011;17254;50.976;7.034;2022-08-21T01:03:52;26.85;;;16.33;;
30458;SDS011;17254;50.976;7.034;2022-08-21T01:04:23;32.53;;;16.25;;
30458;SDS011;17254;50.976;7.034;2022-08-21T01:04:56;27.17;;;17.63;;
30458;SDS011;17254;50.976;7.034;2022-08-21T01:05:27;31.40;;;17.23;;
30458;SDS011;17254;50.976;7.034;2022-08-21T01:05:58;25.88;;;16.50;;
30458;SDS011;17254;50.976;7.034;2022-08-21T01:06:30;33.72;;;17.73;;
30458;SDS011;17254;50.976;7.034;2022-08-21T01:07:02;25.05;;;16.40;;
30458;SDS011;17254;50.976;7.034;2022-08-21T01:07:34;30.98;;;16.60;;
30458;SDS011;17254;50.976;7.034;2022-08-21T01:08:06;27.73;;;16.77;;
30458;SDS011;17254;50.976;7.034;2022-08-21T01:08:38;31.15;;;17.23;;
30458;SDS011;17254;50.976;7.034;2022-08-21T01:09:09;30.60;;;16.70;;
30458;SDS011;17254;50.976;7.034;2022-08-21T01:09:42;26.35;;;16.50;;
30458;SDS011;17254;50.976;7.034;2022-08-21T01:10:14;29.80;;;16.75;;
30458;SDS011;17254;50.976;7.034;2022-08-21T01:10:45;38.38;;;16.92;;
30458;SDS011;17254;50.976;7.034;2022-08-21T01:11:18;29.08;;;16.70;;
30458;SDS011;17254;50.976;7.034;2022-08-21T01:11:50;32.30;;;17.50;;
30458;SDS011;17254;50.976;7.034;2022-08-21T01:12:22;31.10;;;17.33;;
30458;SDS011;17254;50.976;7.034;2022-08-21T01:12:55;31.60;;;16.95;;
30458;SDS011;17254;50.976;7.034;2022-08-21T01:13:29;30.35;;;16.77;;
30458;SDS011;17254;50.976;7.034;2022-08-21T01:14:02;36.08;;;17.48;;
30458;SDS011;17254;50.976;7.034;2022-08-21T01:14:33;41.00;;;16.80;;
30458;SDS011;17254;50.976;7.034;2022-08-21T01:15:06;36.17;;;16.23;;
30458;SDS011;17254;50.976;7.034;2022-08-21T01:15:46;31.35;;;17.55;;
30458;SDS011;17254;50.976;7.034;2022-08-21T01:16:20;33.90;;;16.75;;
30458;SDS011;17254;50.976;7.034;2022-08-21T01:16:53;30.88;;;16.90;;
30458;SDS011;17254;50.976;7.034;2022-08-21T01:17:25;30.02;;;16.20;;
30458;SDS011;17254;50.976;7.034;2022-08-21T01:17:57;36.05;;;17.52;;
30458;SDS011;17254;50.976;7.034;2022-08-21T01:18:29;32.03;;;16.30;;
30458;SDS011;17254;50.976;7.034;2022-08-21T01:19:02;32.53;;;17.10;;
30458;SDS011;17254;50.976;7.034;2022-08-21T01:19:33;29.35;;;16.27;;
30458;SDS011;17254;50.976;7.034;2022-08-21T01:20:05;26.92;;;16.40;;
30458;SDS011;17254;50.976;7.034;2022-08-21T01:20:43;30.80;;;15.45;;
30458;SDS011;17254;50.976;7.034;2022-08-21T01:21:19;34.40;;;16.00;;
30458;SDS011;17254;50.976;7.034;2022-08-21T01:21:51;30.45;;;17.00;;
30458;SDS011;17254;50.976;7.034;2022-08-21T01:22:23;34.30;;;17.90;;
30458;SDS011;17254;50.976;7.034;2022-08-21T01:22:56;34.20;;;16.38;;
30458;SDS011;17254;50.976;7.034;2022-08-21T01:23:28;33.17;;;15.75;;
30458;SDS011;17254;50.976;7.034;2022-08-21T01:23:59;36.58;;;17.02;;
30458;SDS011;17254;50.976;7.034;2022-08-21T01:24:31;27.98;;;15.60;;
30458;SDS011;17254;50.976;7.034;2022-08-21T01:25:03;35.53;;;17.58;;
30458;SDS011;17254;50.976;7.034;2022-08-21T01:25:35;28.00;;;15.85;;
30458;SDS011;17254;50.976;7.034;2022-08-21T01:26:08;26.23;;;16.27;;
30458;SDS011;17254;50.976;7.034;2022-08-21T01:26:40;31.02;;;16.60;;
30458;SDS011;17254;50.976;7.034;2022-08-21T01:27:12;34.92;;;15.18;;
30458;SDS011;17254;50.976;7.034;2022-08-21T01:27:44;25.70;;;16.80;;
30458;SDS011;17254;50.976;7.034;2022-08-21T01:28:16;35.03;;;16.33;;
30458;SDS011;17254;50.976;7.034;2022-08-21T01:28:48;31.50;;;15.57;;
30458;SDS011;17254;50.976;7.034;2022-08-21T01:29:28;25.80;;;17.27;;
30458;SDS011;17254;50.976;7.034;2022-08-21T01:30:04;25.20;;;15.18;;
30458;SDS011;17254;50.976;7.034;2022-08-21T01:30:40;29.73;;;16.10;;
30458;SDS011;17254;50.976;7.034;2022-08-21T01:31:51;30.92;;;15.50;;
30458;SDS011;17254;50.976;7.034;2022-08-21T01:32:24;34.60;;;16.90;;
30458;SDS011;17254;50.976;7.034;2022-08-21T01:32:55;28.38;;;15.10;;
30458;SDS011;17254;50.976;7.034;2022-08-21T01:33:26;33.83;;;16.00;;
30458;SDS011;17254;50.976;7.034;2022-08-21T01:33:59;32.47;;;17.65;;
30458;SDS011;17254;50.976;7.034;2022-08-21T01:34:30;31.90;;;16.50;;
30458;SDS011;17254;50.976;7.034;2022-08-21T01:35:03;27.00;;;15.35;;
30458;SDS011;17254;50.976;7.034;2022-08-21T01:35:36;26.75;;;15.38;;
30458;SDS011;17254;50.976;7.034;2022-08-21T01:36:08;34.60;;;17.17;;
30458;SDS011;17254;50.976;7.034;2022-08-21T01:36:49;29.10;;;15.82;;
30458;SDS011;17254;50.976;7.034;2022-08-21T01:37:21;26.65;;;15.88;;
30458;SDS011;17254;50.976;7.034;2022-08-21T01:37:52;27.27;;;15.38;;
30458;SDS011;17254;50.976;7.034;2022-08-21T01:38:24;25.95;;;15.32;;
30458;SDS011;17254;50.976;7.034;2022-08-21T01:38:56;30.52;;;16.63;;
30458;SDS011;17254;50.976;7.034;2022-08-21T01:39:28;26.10;;;15.48;;
30458;SDS011;17254;50.976;7.034;2022-08-21T01:39:59;35.72;;;17.08;;
30458;SDS011;17254;50.976;7.034;2022-08-21T01:40:31;27.90;;;15.50;;
30458;SDS011;17254;50.976;7.034;2022-08-21T01:41:02;26.77;;;15.77;;
30458;SDS011;17254;50.976;7.034;2022-08-21T01:41:33;24.58;;;15.52;;
30458;SDS011;17254;50.976;7.034;2022-08-21T01:42:05;26.85;;;16.45;;
30458;SDS011;17254;50.976;7.034;2022-08-21T01:42:37;22.35;;;16.30;;
30458;SDS011;17254;50.976;7.034;2022-08-21T01:43:08;26.88;;;15.70;;
30458;SDS011;17254;50.976;7.034;2022-08-21T01:43:40;34.38;;;17.17;;
30458;SDS011;17254;50.976;7.034;2022-08-21T01:44:12;29.55;;;16.10;;
30458;SDS011;17254;50.976;7.034;2022-08-21T01:44:43;27.52;;;16.63;;
30458;SDS011;17254;50.976;7.034;2022-08-21T01:45:14;27.48;;;17.38;;
30458;SDS011;17254;50.976;7.034;2022-08-21T01:45:46;31.58;;;16.85;;
30458;SDS011;17254;50.976;7.034;2022-08-21T01:46:17;27.13;;;15.27;;
30458;SDS011;17254;50.976;7.034;2022-08-21T01:46:49;23.10;;;15.75;;
30458;SDS011;17254;50.976;7.034;2022-08-21T01:47:22;33.05;;;16.40;;
30458;SDS011;17254;50.976;7.034;2022-08-21T01:47:53;26.52;;;15.18;;
30458;SDS011;17254;50.976;7.034;2022-08-21T01:48:25;29.63;;;16.30;;
30458;SDS011;17254;50.976;7.034;2022-08-21T01:48:56;29.35;;;17.40;;
30458;SDS011;17254;50.976;7.034;2022-08-21T01:49:28;28.88;;;16.55;;
30458;SDS011;17254;50.976;7.034;2022-08-21T01:49:59;29.70;;;16.30;;
30458;SDS011;17254;50.976;7.034;2022-08-21T01:50:31;28.15;;;15.13;;
30458;SDS011;17254;50.976;7.034;2022-08-21T01:51:02;31.70;;;16.92;;
30458;SDS011;17254;50.976;7.034;2022-08-21T01:51:34;25.65;;;14.75;;
30458;SDS011;17254;50.976;7.034;2022-08-21T01:52:08;29.38;;;16.92;;
30458;SDS011;17254;50.976;7.034;2022-08-21T01:52:40;28.60;;;15.35;;
30458;SDS011;17254;50.976;7.034;2022-08-21T01:53:11;34.45;;;16.08;;
30458;SDS011;17254;50.976;7.034;2022-08-21T01:53:43;31.42;;;16.48;;
30458;SDS011;17254;50.976;7.034;2022-08-21T01:54:15;31.55;;;16.52;;
30458;SDS011;17254;50.976;7.034;2022-08-21T01:54:46;30.30;;;16.15;;
30458;SDS011;17254;50.976;7.034;2022-08-21T01:55:18;30.85;;;15.48;;
30458;SDS011;17254;50.976;7.034;2022-08-21T01:55:51;23.92;;;15.63;;
30458;SDS011;17254;50.976;7.034;2022-08-21T01:56:22;25.85;;;16.33;;
30458;SDS011;17254;50.976;7.034;2022-08-21T01:56:54;31.35;;;16.00;;
30458;SDS011;17254;50.976;7.034;2022-08-21T01:57:27;31.77;;;17.60;;
30458;SDS011;17254;50.976;7.034;2022-08-21T01:57:58;28.00;;;15.63;;
30458;SDS011;17254;50.976;7.034;2022-08-21T01:58:29;29.30;;;16.30;;
30458;SDS011;17254;50.976;7.034;2022-08-21T01:59:01;26.42;;;16.08;;
30458;SDS011;17254;50.976;7.034;2022-08-21T01:59:34;34.42;;;16.80;;
30458;SDS011;17254;50.976;7.034;2022-08-21T02:00:06;33.33;;;16.98;;
30458;SDS011;17254;50.976;7.034;2022-08-21T02:00:42;28.88;;;14.93;;
30458;SDS011;17254;50.976;7.034;2022-08-21T02:01:14;28.83;;;16.35;;
30458;SDS011;17254;50.976;7.034;2022-08-21T02:01:45;36.97;;;18.15;;
30458;SDS011;17254;50.976;7.034;2022-08-21T02:02:16;32.95;;;17.38;;
30458;SDS011;17254;50.976;7.034;2022-08-21T02:02:49;28.15;;;16.85;;
30458;SDS011;17254;50.976;7.034;2022-08-21T02:03:20;28.63;;;17.60;;
30458;SDS011;17254;50.976;7.034;2022-08-21T02:03:51;26.58;;;16.38;;
30458;SDS011;17254;50.976;7.034;2022-08-21T02:04:23;35.53;;;18.00;;
30458;SDS011;17254;50.976;7.034;2022-08-21T02:04:54;29.00;;;15.15;;
30458;SDS011;17254;50.976;7.034;2022-08-21T02:05:26;29.42;;;16.67;;
30458;SDS011;17254;50.976;7.034;2022-08-21T02:05:58;34.15;;;17.38;;
30458;SDS011;17254;50.976;7.034;2022-08-21T02:06:29;28.67;;;16.40;;
30458;SDS011;17254;50.976;7.034;2022-08-21T02:07:00;30.05;;;17.38;;
30458;SDS011;17254;50.976;7.034;2022-08-21T02:07:37;38.90;;;17.42;;
30458;SDS011;17254;50.976;7.034;2022-08-21T02:08:08;33.42;;;16.95;;
30458;SDS011;17254;50.976;7.034;2022-08-21T02:08:40;29.67;;;15.80;;
30458;SDS011;17254;50.976;7.034;2022-08-21T02:09:11;36.40;;;17.13;;
30458;SDS011;17254;50.976;7.034;2022-08-21T02:09:44;29.20;;;17.20;;
30458;SDS011;17254;50.976;7.034;2022-08-21T02:10:17;26.10;;;16.05;;
30458;SDS011;17254;50.976;7.034;2022-08-21T02:10:51;32.72;;;15.95;;
30458;SDS011;17254;50.976;7.034;2022-08-21T02:11:22;27.17;;;16.67;;
30458;SDS011;17254;50.976;7.034;2022-08-21T02:11:54;32.47;;;16.88;;
30458;SDS011;17254;50.976;7.034;2022-08-21T02:12:25;32.67;;;17.38;;
30458;SDS011;17254;50.976;7.034;2022-08-21T02:12:57;34.38;;;16.33;;
30458;SDS011;17254;50.976;7.034;2022-08-21T02:13:29;29.83;;;16.67;;
30458;SDS011;17254;50.976;7.034;2022-08-21T02:14:00;27.23;;;15.18;;
30458;SDS011;17254;50.976;7.034;2022-08-21T02:14:31;31.35;;;15.90;;
30458;SDS011;17254;50.976;7.034;2022-08-21T02:15:04;26.33;;;16.52;;
30458;SDS011;17254;50.976;7.034;2022-08-21T02:15:36;29.60;;;15.20;;
30458;SDS011;17254;50.976;7.034;2022-08-21T02:16:09;32.58;;;17.27;;
30458;SDS011;17254;50.976;7.034;2022-08-21T02:16:42;35.75;;;16.48;;
30458;SDS011;17254;50.976;7.034;2022-08-21T02:17:14;30.77;;;16.63;;
30458;SDS011;17254;50.976;7.034;2022-08-21T02:17:52;28.95;;;15.77;;
30458;SDS011;17254;50.976;7.034;2022-08-21T02:18:57;34.97;;;17.60;;
30458;SDS011;17254;50.976;7.034;2022-08-21T02:19:28;25.92;;;14.75;;
30458;SDS011;17254;50.976;7.034;2022-08-21T02:20:00;33.30;;;17.70;;
30458;SDS011;17254;50.976;7.034;2022-08-21T02:20:32;27.48;;;17.10;;
30458;SDS011;17254;50.976;7.034;2022-08-21T02:21:05;37.17;;;17.65;;
30458;SDS011;17254;50.976;7.034;2022-08-21T02:21:38;26.48;;;17.17;;
30458;SDS011;17254;50.976;7.034;2022-08-21T02:22:09;36.13;;;18.08;;
30458;SDS011;17254;50.976;7.034;2022-08-21T02:22:42;34.40;;;17.88;;
30458;SDS011;17254;50.976;7.034;2022-08-21T02:23:15;38.95;;;17.27;;
30458;SDS011;17254;50.976;7.034;2022-08-21T02:23:47;27.73;;;17.10;;
30458;SDS011;17254;50.976;7.034;2022-08-21T02:24:18;34.13;;;16.83;;
30458;SDS011;17254;50.976;7.034;2022-08-21T02:24:50;30.70;;;17.27;;
30458;SDS011;17254;50.976;7.034;2022-08-21T02:25:22;32.10;;;18.00;;
30458;SDS011;17254;50.976;7.034;2022-08-21T02:25:54;32.30;;;17.00;;
30458;SDS011;17254;50.976;7.034;2022-08-21T02:26:26;26.52;;;15.75;;
30458;SDS011;17254;50.976;7.034;2022-08-21T02:26:58;36.22;;;18.88;;
30458;SDS011;17254;50.976;7.034;2022-08-21T02:27:32;36.33;;;17.83;;
30458;SDS011;17254;50.976;7.034;2022-08-21T02:28:10;25.70;;;15.98;;
30458;SDS011;17254;50.976;7.034;2022-08-21T02:28:43;30.38;;;15.55;;
30458;SDS011;17254;50.976;7.034;2022-08-21T02:29:14;28.95;;;16.73;;
30458;SDS011;17254;50.976;7.034;2022-08-21T02:29:45;29.40;;;17.10;;
30458;SDS011;17254;50.976;7.034;2022-08-21T02:30:18;35.25;;;18.58;;
30458;SDS011;17254;50.976;7.034;2022-08-21T02:30:52;30.98;;;16.80;;
30458;SDS011;17254;50.976;7.034;2022-08-21T02:31:25;35.88;;;17.60;;
30458;SDS011;17254;50.976;7.034;2022-08-21T02:31:56;37.03;;;18.63;;
30458;SDS011;17254;50.976;7.034;2022-08-21T02:32:27;30.60;;;16.60;;
30458;SDS011;17254;50.976;7.034;2022-08-21T02:32:59;29.73;;;17.85;;
30458;SDS011;17254;50.976;7.034;2022-08-21T02:33:31;37.28;;;18.02;;
30458;SDS011;17254;50.976;7.034;2022-08-21T02:34:04;30.42;;;17.67;;
30458;SDS011;17254;50.976;7.034;2022-08-21T02:34:35;35.80;;;18.35;;
30458;SDS011;17254;50.976;7.034;2022-08-21T02:35:06;29.63;;;17.80;;
30458;SDS011;17254;50.976;7.034;2022-08-21T02:35:39;36.20;;;17.77;;
30458;SDS011;17254;50.976;7.034;2022-08-21T02:36:12;28.73;;;17.63;;
30458;SDS011;17254;50.976;7.034;2022-08-21T02:36:43;28.88;;;17.70;;
30458;SDS011;17254;50.976;7.034;2022-08-21T02:37:15;31.70;;;17.38;;
30458;SDS011;17254;50.976;7.034;2022-08-21T02:37:48;33.30;;;17.42;;
30458;SDS011;17254;50.976;7.034;2022-08-21T02:38:22;31.00;;;17.27;;
30458;SDS011;17254;50.976;7.034;2022-08-21T02:38:59;32.90;;;18.63;;
30458;SDS011;17254;50.976;7.034;2022-08-21T02:39:30;30.85;;;17.85;;
30458;SDS011;17254;50.976;7.034;2022-08-21T02:40:01;37.30;;;19.60;;
30458;SDS011;17254;50.976;7.034;2022-08-21T02:40:34;33.55;;;19.60;;
30458;SDS011;17254;50.976;7.034;2022-08-21T02:41:09;30.48;;;18.33;;
30458;SDS011;17254;50.976;7.034;2022-08-21T02:41:43;37.53;;;18.92;;
30458;SDS011;17254;50.976;7.034;2022-08-21T02:42:15;33.00;;;18.42;;
30458;SDS011;17254;50.976;7.034;2022-08-21T02:42:46;32.03;;;19.08;;
30458;SDS011;17254;50.976;7.034;2022-08-21T02:43:18;30.83;;;19.00;;
30458;SDS011;17254;50.976;7.034;2022-08-21T02:43:54;37.00;;;18.83;;
30458;SDS011;17254;50.976;7.034;2022-08-21T02:44:25;36.13;;;19.60;;
30458;SDS011;17254;50.976;7.034;2022-08-21T02:44:56;32.22;;;17.88;;
30458;SDS011;17254;50.976;7.034;2022-08-21T02:45:28;39.28;;;18.73;;
30458;SDS011;17254;50.976;7.034;2022-08-21T02:45:59;28.52;;;17.67;;
30458;SDS011;17254;50.976;7.034;2022-08-21T02:46:30;33.88;;;20.05;;
30458;SDS011;17254;50.976;7.034;2022-08-21T02:47:03;36.00;;;19.33;;
30458;SDS011;17254;50.976;7.034;2022-08-21T02:47:34;35.75;;;19.88;;
30458;SDS011;17254;50.976;7.034;2022-08-21T02:48:07;29.73;;;18.67;;
30458;SDS011;17254;50.976;7.034;2022-08-21T02:48:41;38.28;;;20.48;;
30458;SDS011;17254;50.976;7.034;2022-08-21T02:49:14;35.28;;;18.60;;
30458;SDS011;17254;50.976;7.034;2022-08-21T02:49:45;39.30;;;19.80;;
30458;SDS011;17254;50.976;7.034;2022-08-21T02:50:18;36.97;;;20.92;;
30458;SDS011;17254;50.976;7.034;2022-08-21T02:50:54;35.28;;;19.15;;
30458;SDS011;17254;50.976;7.034;2022-08-21T02:51:28;39.78;;;19.58;;
30458;SDS011;17254;50.976;7.034;2022-08-21T02:52:01;34.28;;;20.08;;
30458;SDS011;17254;50.976;7.034;2022-08-21T02:52:32;42.22;;;20.02;;
30458;SDS011;17254;50.976;7.034;2022-08-21T02:53:05;38.33;;;20.63;;
30458;SDS011;17254;50.976;7.034;2022-08-21T02:53:38;41.83;;;20.10;;
30458;SDS011;17254;50.976;7.034;2022-08-21T02:54:10;36.65;;;19.83;;
30458;SDS011;17254;50.976;7.034;2022-08-21T02:54:41;34.33;;;20.13;;
30458;SDS011;17254;50.976;7.034;2022-08-21T02:55:13;38.67;;;20.63;;
30458;SDS011;17254;50.976;7.034;2022-08-21T02:55:45;31.85;;;20.35;;
30458;SDS011;17254;50.976;7.034;2022-08-21T02:56:19;34.00;;;20.67;;
30458;SDS011;17254;50.976;7.034;2022-08-21T02:56:52;35.40;;;20.70;;
30458;SDS011;17254;50.976;7.034;2022-08-21T02:57:23;35.83;;;20.75;;
30458;SDS011;17254;50.976;7.034;2022-08-21T02:57:54;31.17;;;20.23;;
30458;SDS011;17254;50.976;7.034;2022-08-21T02:58:27;34.72;;;19.88;;
30458;SDS011;17254;50.976;7.034;2022-08-21T02:59:01;39.30;;;21.58;;
30458;SDS011;17254;50.976;7.034;2022-08-21T02:59:32;37.03;;;21.05;;
30458;SDS011;17254;50.976;7.034;2022-08-21T03:00:04;38.00;;;20.80;;
30458;SDS011;17254;50.976;7.034;2022-08-21T03:00:38;39.60;;;21.73;;
30458;SDS011;17254;50.976;7.034;2022-08-21T03:01:10;41.17;;;21.60;;
30458;SDS011;17254;50.976;7.034;2022-08-21T03:01:41;34.65;;;20.15;;
30458;SDS011;17254;50.976;7.034;2022-08-21T03:02:14;40.83;;;21.13;;
30458;SDS011;17254;50.976;7.034;2022-08-21T03:02:45;34.38;;;22.25;;
30458;SDS011;17254;50.976;7.034;2022-08-21T03:03:16;36.67;;;21.13;;
30458;SDS011;17254;50.976;7.034;2022-08-21T03:03:48;44.38;;;21.33;;
30458;SDS011;17254;50.976;7.034;2022-08-21T03:04:21;38.15;;;21.33;;
30458;SDS011;17254;50.976;7.034;2022-08-21T03:04:52;37.25;;;20.70;;
30458;SDS011;17254;50.976;7.034;2022-08-21T03:05:24;37.15;;;20.95;;
30458;SDS011;17254;50.976;7.034;2022-08-21T03:06:00;36.35;;;19.52;;
30458;SDS011;17254;50.976;7.034;2022-08-21T03:06:31;37.25;;;20.00;;
30458;SDS011;17254;50.976;7.034;2022-08-21T03:07:03;36.20;;;21.60;;
30458;SDS011;17254;50.976;7.034;2022-08-21T03:07:34;38.35;;;21.27;;
30458;SDS011;17254;50.976;7.034;2022-08-21T03:08:08;34.58;;;20.30;;
30458;SDS011;17254;50.976;7.034;2022-08-21T03:08:41;35.33;;;19.70;;
30458;SDS011;17254;50.976;7.034;2022-08-21T03:09:15;33.65;;;19.85;;
30458;SDS011;17254;50.976;7.034;2022-08-21T03:09:47;36.22;;;20.60;;
30458;SDS011;17254;50.976;7.034;2022-08-21T03:10:18;28.42;;;20.50;;
30458;SDS011;17254;50.976;7.034;2022-08-21T03:10:51;51.03;;;22.88;;